Hamnavoe — VSTY7 — position and weather

sailwx.info

Track history (hours):
 
Tides and Currents Weather Stations Pressure Air Temp Water Temp Dewpoint Dewpoint Depression Visibility Wind Speed Wind Dir Waves Ship Positions

Hamnavoe

Operator: NorthLink Orkey & Shetland Ferries Ltd

Last reported at 2016-Jul-28 15:33 UTC. Time now 2016-Jul-28 16:27 UTC.
Position N 58°58' W 003°18'.

Length 112 m; draft 4.2 m.

Type: Ship. MMSI: 235449000.

Date/timePositionNaut miles runAvg speedWind from/ knotsBaromVisibWave heightAir tempDewpointWater temp
2016-Jul-28 15:33N 58°58' W 003°18'0 0.0
2016-Jul-28 14:33N 58°58' W 003°18'0 0.3
2016-Jul-28 13:33N 58°58' W 003°18'1615.8
2016-Jul-28 12:34N 58°43' W 003°30'7 6.5
2016-Jul-28 11:33N 58°37' W 003°32'1515.0
2016-Jul-28 10:33N 58°52' W 003°28'8 8.3
2016-Jul-28 09:33N 58°58' W 003°18'7 6.7
2016-Jul-28 08:33N 58°53' W 003°27'1716.7
2016-Jul-28 07:33N 58°37' W 003°32'6 5.6
2016-Jul-28 06:33N 58°42' W 003°31'1616.0
2016-Jul-28 05:33N 58°57' W 003°18'1 1.0
2016-Jul-28 04:29N 58°58' W 003°18'0 0.0
2016-Jul-28 03:29N 58°58' W 003°18'0 0.0
2016-Jul-28 02:29N 58°58' W 003°18'0 0.0
2016-Jul-28 01:29N 58°58' W 003°18'0 0.0
2016-Jul-28 00:32N 58°58' W 003°18'0 0.0
2016-Jul-27 23:32N 58°58' W 003°18'0 0.0
2016-Jul-27 22:32N 58°58' W 003°18'0 0.0
2016-Jul-27 21:32N 58°58' W 003°18'0 0.0
2016-Jul-27 20:32N 58°58' W 003°18'0 0.0
2016-Jul-27 19:33N 58°58' W 003°18'1111.4
2016-Jul-27 18:33N 58°48' W 003°29'1111.4
2016-Jul-27 17:33N 58°37' W 003°32'1010.3
2016-Jul-27 16:33N 58°47' W 003°29'1212.5
2016-Jul-27 15:33N 58°58' W 003°18'0 0.0
2016-Jul-27 14:33N 58°58' W 003°18'0 0.1
2016-Jul-27 13:33N 58°58' W 003°18'1515.0
2016-Jul-27 12:33N 58°44' W 003°30'8 7.5
2016-Jul-27 11:33N 58°37' W 003°32'1515.0
2016-Jul-27 10:33N 58°52' W 003°28'8 8.2
2016-Jul-27 09:33N 58°58' W 003°18'7 7.5
2016-Jul-27 08:33N 58°52' W 003°28'1615.9
2016-Jul-27 07:33N 58°37' W 003°32'5 5.2
2016-Jul-27 06:33N 58°42' W 003°32'1716.7
2016-Jul-27 05:34N 58°57' W 003°18'1 1.0
2016-Jul-27 04:31N 58°58' W 003°18'0 0.0
2016-Jul-27 03:31N 58°58' W 003°18'0 0.0
2016-Jul-27 02:31N 58°58' W 003°18'0 0.0
2016-Jul-27 01:31N 58°58' W 003°18'0 0.0
2016-Jul-27 00:31N 58°58' W 003°18'0 0.0
2016-Jul-26 23:31N 58°58' W 003°18'0 0.0
2016-Jul-26 22:31N 58°58' W 003°18'0 0.0
2016-Jul-26 21:31N 58°58' W 003°18'0 0.0
2016-Jul-26 20:31N 58°58' W 003°18'0 0.0
2016-Jul-26 19:33N 58°58' W 003°18'1010.2
2016-Jul-26 18:33N 58°49' W 003°28'1312.8
2016-Jul-26 17:33N 58°37' W 003°32'10 9.9
2016-Jul-26 16:33N 58°46' W 003°29'1312.9
2016-Jul-26 15:33N 58°58' W 003°18'0 0.0
2016-Jul-26 14:33N 58°58' W 003°18'0 0.4
2016-Jul-26 13:33N 58°57' W 003°18'1615.9
2016-Jul-26 12:33N 58°43' W 003°30'6 6.3
2016-Jul-26 11:34N 58°37' W 003°32'1615.7
2016-Jul-26 10:33N 58°52' W 003°28'8 7.6
2016-Jul-26 09:33N 58°58' W 003°18'8 7.5
2016-Jul-26 08:33N 58°52' W 003°28'1615.9
2016-Jul-26 07:33N 58°37' W 003°32'6 6.0
2016-Jul-26 06:34N 58°42' W 003°30'1616.1
2016-Jul-26 05:33N 58°57' W 003°17'1 0.6
2016-Jul-26 04:33N 58°58' W 003°18'0 0.0
2016-Jul-26 03:33N 58°58' W 003°18'0 0.0
2016-Jul-26 02:33N 58°58' W 003°18'0 0.0
2016-Jul-26 01:33N 58°58' W 003°18'0 0.0
2016-Jul-26 00:33N 58°58' W 003°18'0 0.0
2016-Jul-25 23:33N 58°58' W 003°18'0 0.0
2016-Jul-25 22:33N 58°58' W 003°18'0 0.0
2016-Jul-25 21:33N 58°58' W 003°18'0 0.0
2016-Jul-25 20:33N 58°58' W 003°18'0 0.0
2016-Jul-25 19:33N 58°58' W 003°18'1111.2
2016-Jul-25 18:33N 58°48' W 003°29'1211.7
2016-Jul-25 17:33N 58°37' W 003°32'1010.4
2016-Jul-25 16:33N 58°47' W 003°29'1212.4
2016-Jul-25 15:33N 58°58' W 003°18'0 0.0
2016-Jul-25 14:33N 58°58' W 003°18'0 0.0
2016-Jul-25 13:33N 58°58' W 003°18'1414.2
2016-Jul-25 12:33N 58°45' W 003°30'8 8.5
2016-Jul-25 11:33N 58°37' W 003°32'1515.2
2016-Jul-25 10:33N 58°52' W 003°28'8 8.0
2016-Jul-25 09:33N 58°58' W 003°18'8 7.7
2016-Jul-25 08:33N 58°52' W 003°28'1615.8
2016-Jul-25 07:33N 58°37' W 003°32'6 5.9
2016-Jul-25 06:33N 58°42' W 003°30'1616.1
2016-Jul-25 05:33N 58°57' W 003°17'1 0.6
2016-Jul-25 04:32N 58°58' W 003°18'0 0.0
2016-Jul-25 03:32N 58°58' W 003°18'0 0.0
2016-Jul-25 02:32N 58°58' W 003°18'0 0.0
2016-Jul-25 01:32N 58°58' W 003°18'0 0.0
2016-Jul-25 00:32N 58°58' W 003°18'0 0.0
2016-Jul-24 23:32N 58°58' W 003°18'0 0.0
2016-Jul-24 22:32N 58°58' W 003°18'0 0.0
2016-Jul-24 21:32N 58°58' W 003°18'0 0.0
2016-Jul-24 20:32N 58°58' W 003°18'0 0.0
2016-Jul-24 19:33N 58°58' W 003°18'1111.4
2016-Jul-24 18:33N 58°48' W 003°29'1211.6
2016-Jul-24 17:33N 58°37' W 003°32'9 9.1
2016-Jul-24 16:33N 58°46' W 003°30'1413.6
2016-Jul-24 15:33N 58°58' W 003°18'0 0.0
2016-Jul-24 14:33N 58°58' W 003°18'0 0.0
2016-Jul-24 13:33N 58°58' W 003°18'0 0.0
2016-Jul-24 12:33N 58°58' W 003°18'1212.2
2016-Jul-24 11:33N 58°47' W 003°29'1110.7
2016-Jul-24 10:33N 58°37' W 003°32'0 0.0
2016-Jul-24 09:33N 58°37' W 003°32'1615.9
2016-Jul-24 08:33N 58°52' W 003°28'8 6.9
2016-Jul-24 07:28N 58°58' W 003°18'0 0.0
2016-Jul-24 06:31N 58°58' W 003°18'0 0.0
2016-Jul-24 05:31N 58°58' W 003°18'0 0.0
2016-Jul-24 04:31N 58°58' W 003°18'0 0.0
2016-Jul-24 03:31N 58°58' W 003°18'0 0.0
2016-Jul-24 02:31N 58°58' W 003°18'0 0.0
2016-Jul-24 01:31N 58°58' W 003°18'0 0.0
2016-Jul-24 00:31N 58°58' W 003°18'0 0.0
2016-Jul-23 23:31N 58°58' W 003°18'0 0.0
2016-Jul-23 22:31N 58°58' W 003°18'0 0.0
2016-Jul-23 21:31N 58°58' W 003°18'0 0.0
2016-Jul-23 20:31N 58°58' W 003°18'0 0.0
2016-Jul-23 19:28N 58°58' W 003°18'1111.6
2016-Jul-23 18:34N 58°49' W 003°29'1212.5
2016-Jul-23 17:34N 58°37' W 003°32'10 9.8
2016-Jul-23 16:33N 58°46' W 003°30'1313.0
2016-Jul-23 15:33N 58°58' W 003°18'0 0.0
2016-Jul-23 14:33N 58°58' W 003°18'1 1.2
2016-Jul-23 13:33N 58°57' W 003°19'1716.9
2016-Jul-23 12:33N 58°41' W 003°32'5 4.6
2016-Jul-23 11:34N 58°37' W 003°32'1615.7
2016-Jul-23 10:33N 58°52' W 003°28'8 7.7
2016-Jul-23 09:33N 58°58' W 003°18'9 8.5
2016-Jul-23 08:33N 58°51' W 003°28'1514.7
2016-Jul-23 07:33N 58°37' W 003°32'6 6.4
2016-Jul-23 06:33N 58°43' W 003°30'16 8.1
2016-Jul-23 04:33N 58°58' W 003°18'0 0.0
2016-Jul-23 03:33N 58°58' W 003°18'0 0.0
2016-Jul-23 02:33N 58°58' W 003°18'0 0.0
2016-Jul-23 01:33N 58°58' W 003°18'0 0.0
2016-Jul-23 00:33N 58°58' W 003°18'0 0.0
2016-Jul-22 23:33N 58°58' W 003°18'0 0.0
2016-Jul-22 22:33N 58°58' W 003°18'0 0.0
2016-Jul-22 21:33N 58°58' W 003°18'0 0.0
2016-Jul-22 20:33N 58°58' W 003°18'0 0.0
2016-Jul-22 19:33N 58°58' W 003°18'1211.7
2016-Jul-22 18:33N 58°48' W 003°29'1111.1
2016-Jul-22 17:33N 58°37' W 003°32'1211.9
2016-Jul-22 16:34N 58°48' W 003°29'1111.0
2016-Jul-22 15:33N 58°58' W 003°18'0 0.0
2016-Jul-22 14:28N 58°58' W 003°18'0 0.5
2016-Jul-22 13:33N 58°57' W 003°18'1515.2
2016-Jul-22 12:33N 58°43' W 003°29'7 6.9
2016-Jul-22 11:33N 58°37' W 003°32'1616.0
2016-Jul-22 10:33N 58°53' W 003°28'7 7.5
2016-Jul-22 09:33N 58°58' W 003°18'6 5.9
2016-Jul-22 08:33N 58°54' W 003°27'1817.8
2016-Jul-22 07:33N 58°37' W 003°32'2211.0
2016-Jul-22 05:33N 58°57' W 003°18'1 0.6
2016-Jul-22 04:33N 58°58' W 003°18'0 0.0
2016-Jul-22 03:33N 58°58' W 003°18'0 0.0
2016-Jul-22 02:34N 58°58' W 003°18'0 0.0
2016-Jul-22 01:33N 58°58' W 003°18'0 0.0
2016-Jul-22 00:33N 58°58' W 003°18'0 0.0
2016-Jul-21 23:33N 58°58' W 003°18'0 0.0
2016-Jul-21 22:33N 58°58' W 003°18'0 0.0
2016-Jul-21 21:33N 58°58' W 003°18'0 0.0
2016-Jul-21 20:33N 58°58' W 003°18'0 0.0
2016-Jul-21 19:34N 58°58' W 003°18'1212.1
2016-Jul-21 18:33N 58°47' W 003°28'1010.5
2016-Jul-21 17:33N 58°37' W 003°32'1413.8
2016-Jul-21 16:33N 58°50' W 003°28'9 9.3
2016-Jul-21 15:33N 58°58' W 003°18'0 0.0
2016-Jul-21 14:33N 58°58' W 003°18'0 0.1
2016-Jul-21 13:34N 58°58' W 003°18'1514.8
2016-Jul-21 12:33N 58°44' W 003°30'8 7.7
2016-Jul-21 11:33N 58°37' W 003°32'1515.3
2016-Jul-21 10:33N 58°52' W 003°28'8 8.2
2016-Jul-21 09:33N 58°58' W 003°18'7 6.9
2016-Jul-21 08:33N 58°53' W 003°27'1716.6
2016-Jul-21 07:33N 58°37' W 003°32'6 5.9
2016-Jul-21 06:33N 58°42' W 003°30'1616.2
2016-Jul-21 05:33N 58°57' W 003°18'1 0.6
2016-Jul-21 04:33N 58°58' W 003°18'0 0.0
2016-Jul-21 03:33N 58°58' W 003°18'0 0.0
2016-Jul-21 02:33N 58°58' W 003°18'0 0.0
2016-Jul-21 01:33N 58°58' W 003°18'0 0.0
2016-Jul-21 00:33N 58°58' W 003°18'0 0.0
2016-Jul-20 23:33N 58°58' W 003°18'0 0.0
2016-Jul-20 22:33N 58°58' W 003°18'0 0.0
2016-Jul-20 21:33N 58°58' W 003°18'0 0.0
2016-Jul-20 20:33N 58°58' W 003°18'0 0.0
2016-Jul-20 19:33N 58°58' W 003°18'1212.0
2016-Jul-20 18:33N 58°47' W 003°29'1110.8
2016-Jul-20 17:33N 58°37' W 003°32'1010.5
2016-Jul-20 16:33N 58°47' W 003°29'1212.4
2016-Jul-20 15:34N 58°58' W 003°18'0 0.0
2016-Jul-20 14:30N 58°58' W 003°18'0 0.3
2016-Jul-20 13:34N 58°58' W 003°18'1615.8
2016-Jul-20 12:33N 58°43' W 003°30'7 6.5
2016-Jul-20 11:33N 58°37' W 003°32'1615.6
2016-Jul-20 10:32N 58°53' W 003°28'12 3.0
2016-Jul-20 06:34N 58°41' W 003°32'1817.4
2016-Jul-20 05:34N 58°57' W 003°18'1 1.0
2016-Jul-20 04:31N 58°58' W 003°18'0 0.0
2016-Jul-20 03:31N 58°58' W 003°18'0 0.0
2016-Jul-20 02:31N 58°58' W 003°18'0 0.0
2016-Jul-20 01:31N 58°58' W 003°18'0 0.0
2016-Jul-20 00:31N 58°58' W 003°18'0 0.0
2016-Jul-19 23:31N 58°58' W 003°18'0 0.0
2016-Jul-19 22:31N 58°58' W 003°18'0 0.0
2016-Jul-19 21:31N 58°58' W 003°18'0 0.0
2016-Jul-19 20:31N 58°58' W 003°18'0 0.0
2016-Jul-19 19:33N 58°58' W 003°18'1111.5
2016-Jul-19 18:33N 58°48' W 003°29'1111.4
2016-Jul-19 17:34N 58°37' W 003°32'1010.1
2016-Jul-19 16:33N 58°47' W 003°30'1312.8
2016-Jul-19 15:33N 58°58' W 003°18'0 0.0
2016-Jul-19 14:29N 58°58' W 003°18'0 0.2
2016-Jul-19 13:33N 58°58' W 003°18'1515.5
2016-Jul-19 12:33N 58°43' W 003°30'7 6.9
2016-Jul-19 11:33N 58°37' W 003°32'1514.9
2016-Jul-19 10:33N 58°51' W 003°28'8 8.4
2016-Jul-19 09:33N 58°58' W 003°18'7 6.7
2016-Jul-19 08:33N 58°53' W 003°27'1716.7
2016-Jul-19 07:33N 58°37' W 003°32'22 7.4
2016-Jul-19 04:31N 58°58' W 003°18'0 0.0
2016-Jul-19 03:31N 58°58' W 003°18'0 0.0
2016-Jul-19 02:31N 58°58' W 003°18'0 0.0
2016-Jul-19 01:31N 58°58' W 003°18'0 0.0
2016-Jul-19 00:31N 58°58' W 003°18'0 0.0
2016-Jul-18 23:31N 58°58' W 003°18'0 0.0
2016-Jul-18 22:31N 58°58' W 003°18'0 0.0
2016-Jul-18 21:31N 58°58' W 003°18'0 0.0
2016-Jul-18 20:25N 58°58' W 003°18'0 0.0
2016-Jul-18 19:33N 58°58' W 003°18'1312.9
2016-Jul-18 18:33N 58°46' W 003°29'10 9.8
2016-Jul-18 17:33N 58°37' W 003°32'1111.2
2016-Jul-18 16:33N 58°48' W 003°29'1211.7
2016-Jul-18 15:33N 58°58' W 003°18'  
Track history (hours):
 
Tides and Currents Weather Stations Pressure Air Temp Water Temp Dewpoint Dewpoint Depression Visibility Wind Speed Wind Dir Waves Ship Positions

Hamnavoe

Operator: NorthLink Orkey & Shetland Ferries Ltd

Last reported at 2016-Jul-28 15:33 UTC. Time now 2016-Jul-28 16:27 UTC.
Position N 58°58' W 003°18'.

Length 112 m; draft 4.2 m.

Type: Ship. MMSI: 235449000.

Date/timePositionNaut miles runAvg speedWind from/ knotsBaromVisibWave heightAir tempDewpointWater temp
2016-Jul-28 15:33N 58°58' W 003°18'0 0.0
2016-Jul-28 14:33N 58°58' W 003°18'0 0.3
2016-Jul-28 13:33N 58°58' W 003°18'1615.8
2016-Jul-28 12:34N 58°43' W 003°30'7 6.5
2016-Jul-28 11:33N 58°37' W 003°32'1515.0
2016-Jul-28 10:33N 58°52' W 003°28'8 8.3
2016-Jul-28 09:33N 58°58' W 003°18'7 6.7
2016-Jul-28 08:33N 58°53' W 003°27'1716.7
2016-Jul-28 07:33N 58°37' W 003°32'6 5.6
2016-Jul-28 06:33N 58°42' W 003°31'1616.0
2016-Jul-28 05:33N 58°57' W 003°18'1 1.0
2016-Jul-28 04:29N 58°58' W 003°18'0 0.0
2016-Jul-28 03:29N 58°58' W 003°18'0 0.0
2016-Jul-28 02:29N 58°58' W 003°18'0 0.0
2016-Jul-28 01:29N 58°58' W 003°18'0 0.0
2016-Jul-28 00:32N 58°58' W 003°18'0 0.0
2016-Jul-27 23:32N 58°58' W 003°18'0 0.0
2016-Jul-27 22:32N 58°58' W 003°18'0 0.0
2016-Jul-27 21:32N 58°58' W 003°18'0 0.0
2016-Jul-27 20:32N 58°58' W 003°18'0 0.0
2016-Jul-27 19:33N 58°58' W 003°18'1111.4
2016-Jul-27 18:33N 58°48' W 003°29'1111.4
2016-Jul-27 17:33N 58°37' W 003°32'1010.3
2016-Jul-27 16:33N 58°47' W 003°29'1212.5
2016-Jul-27 15:33N 58°58' W 003°18'0 0.0
2016-Jul-27 14:33N 58°58' W 003°18'0 0.1
2016-Jul-27 13:33N 58°58' W 003°18'1515.0
2016-Jul-27 12:33N 58°44' W 003°30'8 7.5
2016-Jul-27 11:33N 58°37' W 003°32'1515.0
2016-Jul-27 10:33N 58°52' W 003°28'8 8.2
2016-Jul-27 09:33N 58°58' W 003°18'7 7.5
2016-Jul-27 08:33N 58°52' W 003°28'1615.9
2016-Jul-27 07:33N 58°37' W 003°32'5 5.2
2016-Jul-27 06:33N 58°42' W 003°32'1716.7
2016-Jul-27 05:34N 58°57' W 003°18'1 1.0
2016-Jul-27 04:31N 58°58' W 003°18'0 0.0
2016-Jul-27 03:31N 58°58' W 003°18'0 0.0
2016-Jul-27 02:31N 58°58' W 003°18'0 0.0
2016-Jul-27 01:31N 58°58' W 003°18'0 0.0
2016-Jul-27 00:31N 58°58' W 003°18'0 0.0
2016-Jul-26 23:31N 58°58' W 003°18'0 0.0
2016-Jul-26 22:31N 58°58' W 003°18'0 0.0
2016-Jul-26 21:31N 58°58' W 003°18'0 0.0
2016-Jul-26 20:31N 58°58' W 003°18'0 0.0
2016-Jul-26 19:33N 58°58' W 003°18'1010.2
2016-Jul-26 18:33N 58°49' W 003°28'1312.8
2016-Jul-26 17:33N 58°37' W 003°32'10 9.9
2016-Jul-26 16:33N 58°46' W 003°29'1312.9
2016-Jul-26 15:33N 58°58' W 003°18'0 0.0
2016-Jul-26 14:33N 58°58' W 003°18'0 0.4
2016-Jul-26 13:33N 58°57' W 003°18'1615.9
2016-Jul-26 12:33N 58°43' W 003°30'6 6.3
2016-Jul-26 11:34N 58°37' W 003°32'1615.7
2016-Jul-26 10:33N 58°52' W 003°28'8 7.6
2016-Jul-26 09:33N 58°58' W 003°18'8 7.5
2016-Jul-26 08:33N 58°52' W 003°28'1615.9
2016-Jul-26 07:33N 58°37' W 003°32'6 6.0
2016-Jul-26 06:34N 58°42' W 003°30'1616.1
2016-Jul-26 05:33N 58°57' W 003°17'1 0.6
2016-Jul-26 04:33N 58°58' W 003°18'0 0.0
2016-Jul-26 03:33N 58°58' W 003°18'0 0.0
2016-Jul-26 02:33N 58°58' W 003°18'0 0.0
2016-Jul-26 01:33N 58°58' W 003°18'0 0.0
2016-Jul-26 00:33N 58°58' W 003°18'0 0.0
2016-Jul-25 23:33N 58°58' W 003°18'0 0.0
2016-Jul-25 22:33N 58°58' W 003°18'0 0.0
2016-Jul-25 21:33N 58°58' W 003°18'0 0.0
2016-Jul-25 20:33N 58°58' W 003°18'0 0.0
2016-Jul-25 19:33N 58°58' W 003°18'1111.2
2016-Jul-25 18:33N 58°48' W 003°29'1211.7
2016-Jul-25 17:33N 58°37' W 003°32'1010.4
2016-Jul-25 16:33N 58°47' W 003°29'1212.4
2016-Jul-25 15:33N 58°58' W 003°18'0 0.0
2016-Jul-25 14:33N 58°58' W 003°18'0 0.0
2016-Jul-25 13:33N 58°58' W 003°18'1414.2
2016-Jul-25 12:33N 58°45' W 003°30'8 8.5
2016-Jul-25 11:33N 58°37' W 003°32'1515.2
2016-Jul-25 10:33N 58°52' W 003°28'8 8.0
2016-Jul-25 09:33N 58°58' W 003°18'8 7.7
2016-Jul-25 08:33N 58°52' W 003°28'1615.8
2016-Jul-25 07:33N 58°37' W 003°32'6 5.9
2016-Jul-25 06:33N 58°42' W 003°30'1616.1
2016-Jul-25 05:33N 58°57' W 003°17'1 0.6
2016-Jul-25 04:32N 58°58' W 003°18'0 0.0
2016-Jul-25 03:32N 58°58' W 003°18'0 0.0
2016-Jul-25 02:32N 58°58' W 003°18'0 0.0
2016-Jul-25 01:32N 58°58' W 003°18'0 0.0
2016-Jul-25 00:32N 58°58' W 003°18'0 0.0
2016-Jul-24 23:32N 58°58' W 003°18'0 0.0
2016-Jul-24 22:32N 58°58' W 003°18'0 0.0
2016-Jul-24 21:32N 58°58' W 003°18'0 0.0
2016-Jul-24 20:32N 58°58' W 003°18'0 0.0
2016-Jul-24 19:33N 58°58' W 003°18'1111.4
2016-Jul-24 18:33N 58°48' W 003°29'1211.6
2016-Jul-24 17:33N 58°37' W 003°32'9 9.1
2016-Jul-24 16:33N 58°46' W 003°30'1413.6
2016-Jul-24 15:33N 58°58' W 003°18'0 0.0
2016-Jul-24 14:33N 58°58' W 003°18'0 0.0
2016-Jul-24 13:33N 58°58' W 003°18'0 0.0
2016-Jul-24 12:33N 58°58' W 003°18'1212.2
2016-Jul-24 11:33N 58°47' W 003°29'1110.7
2016-Jul-24 10:33N 58°37' W 003°32'0 0.0
2016-Jul-24 09:33N 58°37' W 003°32'1615.9
2016-Jul-24 08:33N 58°52' W 003°28'8 6.9
2016-Jul-24 07:28N 58°58' W 003°18'0 0.0
2016-Jul-24 06:31N 58°58' W 003°18'0 0.0
2016-Jul-24 05:31N 58°58' W 003°18'0 0.0
2016-Jul-24 04:31N 58°58' W 003°18'0 0.0
2016-Jul-24 03:31N 58°58' W 003°18'0 0.0
2016-Jul-24 02:31N 58°58' W 003°18'0 0.0
2016-Jul-24 01:31N 58°58' W 003°18'0 0.0
2016-Jul-24 00:31N 58°58' W 003°18'0 0.0
2016-Jul-23 23:31N 58°58' W 003°18'0 0.0
2016-Jul-23 22:31N 58°58' W 003°18'0 0.0
2016-Jul-23 21:31N 58°58' W 003°18'0 0.0
2016-Jul-23 20:31N 58°58' W 003°18'0 0.0
2016-Jul-23 19:28N 58°58' W 003°18'1111.6
2016-Jul-23 18:34N 58°49' W 003°29'1212.5
2016-Jul-23 17:34N 58°37' W 003°32'10 9.8
2016-Jul-23 16:33N 58°46' W 003°30'1313.0
2016-Jul-23 15:33N 58°58' W 003°18'0 0.0
2016-Jul-23 14:33N 58°58' W 003°18'1 1.2
2016-Jul-23 13:33N 58°57' W 003°19'1716.9
2016-Jul-23 12:33N 58°41' W 003°32'5 4.6
2016-Jul-23 11:34N 58°37' W 003°32'1615.7
2016-Jul-23 10:33N 58°52' W 003°28'8 7.7
2016-Jul-23 09:33N 58°58' W 003°18'9 8.5
2016-Jul-23 08:33N 58°51' W 003°28'1514.7
2016-Jul-23 07:33N 58°37' W 003°32'6 6.4
2016-Jul-23 06:33N 58°43' W 003°30'16 8.1
2016-Jul-23 04:33N 58°58' W 003°18'0 0.0
2016-Jul-23 03:33N 58°58' W 003°18'0 0.0
2016-Jul-23 02:33N 58°58' W 003°18'0 0.0
2016-Jul-23 01:33N 58°58' W 003°18'0 0.0
2016-Jul-23 00:33N 58°58' W 003°18'0 0.0
2016-Jul-22 23:33N 58°58' W 003°18'0 0.0
2016-Jul-22 22:33N 58°58' W 003°18'0 0.0
2016-Jul-22 21:33N 58°58' W 003°18'0 0.0
2016-Jul-22 20:33N 58°58' W 003°18'0 0.0
2016-Jul-22 19:33N 58°58' W 003°18'1211.7
2016-Jul-22 18:33N 58°48' W 003°29'1111.1
2016-Jul-22 17:33N 58°37' W 003°32'1211.9
2016-Jul-22 16:34N 58°48' W 003°29'1111.0
2016-Jul-22 15:33N 58°58' W 003°18'0 0.0
2016-Jul-22 14:28N 58°58' W 003°18'0 0.5
2016-Jul-22 13:33N 58°57' W 003°18'1515.2
2016-Jul-22 12:33N 58°43' W 003°29'7 6.9
2016-Jul-22 11:33N 58°37' W 003°32'1616.0
2016-Jul-22 10:33N 58°53' W 003°28'7 7.5
2016-Jul-22 09:33N 58°58' W 003°18'6 5.9
2016-Jul-22 08:33N 58°54' W 003°27'1817.8
2016-Jul-22 07:33N 58°37' W 003°32'2211.0
2016-Jul-22 05:33N 58°57' W 003°18'1 0.6
2016-Jul-22 04:33N 58°58' W 003°18'0 0.0
2016-Jul-22 03:33N 58°58' W 003°18'0 0.0
2016-Jul-22 02:34N 58°58' W 003°18'0 0.0
2016-Jul-22 01:33N 58°58' W 003°18'0 0.0
2016-Jul-22 00:33N 58°58' W 003°18'0 0.0
2016-Jul-21 23:33N 58°58' W 003°18'0 0.0
2016-Jul-21 22:33N 58°58' W 003°18'0 0.0
2016-Jul-21 21:33N 58°58' W 003°18'0 0.0
2016-Jul-21 20:33N 58°58' W 003°18'0 0.0
2016-Jul-21 19:34N 58°58' W 003°18'1212.1
2016-Jul-21 18:33N 58°47' W 003°28'1010.5
2016-Jul-21 17:33N 58°37' W 003°32'1413.8
2016-Jul-21 16:33N 58°50' W 003°28'9 9.3
2016-Jul-21 15:33N 58°58' W 003°18'0 0.0
2016-Jul-21 14:33N 58°58' W 003°18'0 0.1
2016-Jul-21 13:34N 58°58' W 003°18'1514.8
2016-Jul-21 12:33N 58°44' W 003°30'8 7.7
2016-Jul-21 11:33N 58°37' W 003°32'1515.3
2016-Jul-21 10:33N 58°52' W 003°28'8 8.2
2016-Jul-21 09:33N 58°58' W 003°18'7 6.9
2016-Jul-21 08:33N 58°53' W 003°27'1716.6
2016-Jul-21 07:33N 58°37' W 003°32'6 5.9
2016-Jul-21 06:33N 58°42' W 003°30'1616.2
2016-Jul-21 05:33N 58°57' W 003°18'1 0.6
2016-Jul-21 04:33N 58°58' W 003°18'0 0.0
2016-Jul-21 03:33N 58°58' W 003°18'0 0.0
2016-Jul-21 02:33N 58°58' W 003°18'0 0.0
2016-Jul-21 01:33N 58°58' W 003°18'0 0.0
2016-Jul-21 00:33N 58°58' W 003°18'0 0.0
2016-Jul-20 23:33N 58°58' W 003°18'0 0.0
2016-Jul-20 22:33N 58°58' W 003°18'0 0.0
2016-Jul-20 21:33N 58°58' W 003°18'0 0.0
2016-Jul-20 20:33N 58°58' W 003°18'0 0.0
2016-Jul-20 19:33N 58°58' W 003°18'1212.0
2016-Jul-20 18:33N 58°47' W 003°29'1110.8
2016-Jul-20 17:33N 58°37' W 003°32'1010.5
2016-Jul-20 16:33N 58°47' W 003°29'1212.4
2016-Jul-20 15:34N 58°58' W 003°18'0 0.0
2016-Jul-20 14:30N 58°58' W 003°18'0 0.3
2016-Jul-20 13:34N 58°58' W 003°18'1615.8
2016-Jul-20 12:33N 58°43' W 003°30'7 6.5
2016-Jul-20 11:33N 58°37' W 003°32'1615.6
2016-Jul-20 10:32N 58°53' W 003°28'12 3.0
2016-Jul-20 06:34N 58°41' W 003°32'1817.4
2016-Jul-20 05:34N 58°57' W 003°18'1 1.0
2016-Jul-20 04:31N 58°58' W 003°18'0 0.0
2016-Jul-20 03:31N 58°58' W 003°18'0 0.0
2016-Jul-20 02:31N 58°58' W 003°18'0 0.0
2016-Jul-20 01:31N 58°58' W 003°18'0 0.0
2016-Jul-20 00:31N 58°58' W 003°18'0 0.0
2016-Jul-19 23:31N 58°58' W 003°18'0 0.0
2016-Jul-19 22:31N 58°58' W 003°18'0 0.0
2016-Jul-19 21:31N 58°58' W 003°18'0 0.0
2016-Jul-19 20:31N 58°58' W 003°18'0 0.0
2016-Jul-19 19:33N 58°58' W 003°18'1111.5
2016-Jul-19 18:33N 58°48' W 003°29'1111.4
2016-Jul-19 17:34N 58°37' W 003°32'1010.1
2016-Jul-19 16:33N 58°47' W 003°30'1312.8
2016-Jul-19 15:33N 58°58' W 003°18'0 0.0
2016-Jul-19 14:29N 58°58' W 003°18'0 0.2
2016-Jul-19 13:33N 58°58' W 003°18'1515.5
2016-Jul-19 12:33N 58°43' W 003°30'7 6.9
2016-Jul-19 11:33N 58°37' W 003°32'1514.9
2016-Jul-19 10:33N 58°51' W 003°28'8 8.4
2016-Jul-19 09:33N 58°58' W 003°18'7 6.7
2016-Jul-19 08:33N 58°53' W 003°27'1716.7
2016-Jul-19 07:33N 58°37' W 003°32'22 7.4
2016-Jul-19 04:31N 58°58' W 003°18'0 0.0
2016-Jul-19 03:31N 58°58' W 003°18'0 0.0
2016-Jul-19 02:31N 58°58' W 003°18'0 0.0
2016-Jul-19 01:31N 58°58' W 003°18'0 0.0
2016-Jul-19 00:31N 58°58' W 003°18'0 0.0
2016-Jul-18 23:31N 58°58' W 003°18'0 0.0
2016-Jul-18 22:31N 58°58' W 003°18'0 0.0
2016-Jul-18 21:31N 58°58' W 003°18'0 0.0
2016-Jul-18 20:25N 58°58' W 003°18'0 0.0
2016-Jul-18 19:33N 58°58' W 003°18'1312.9
2016-Jul-18 18:33N 58°46' W 003°29'10 9.8
2016-Jul-18 17:33N 58°37' W 003°32'1111.2
2016-Jul-18 16:33N 58°48' W 003°29'1211.7
2016-Jul-18 15:33N 58°58' W 003°18'  

Dump ship's entire track history